Arbon, Idaho
Current Conditions -  °F | °C
As of 10:53 AM on Friday 28 Nov 2014 (Local Time) from KPIH Reporting Station
Clear Clear  
Wind Chill: 59°   Ceiling: Unl
Heat Index: 59°   Visibility: 10mi
Dew Point: 20°   Wind: 16mph
Humidity: 22%   Direction: 190°S
Pressure: 29.9"   Gusts: NA
Location:  42.46°N, 112.57°W
Report Text: KPIH 281753Z 19014KT 10SM CLR 15/M07 A2990 RMK AO2 SLP099 T01501067 10150 20044 58005
Loading
Personal Weather Stations






























Interactive Weather Map New forecast layout! Learn more

10-Day Weather Forecast

Advertisements
Track Severe Weather on mobile